Time;durP1;ratioP1;P1;durP2;ratioP2;P2;SDS_P1;SDS_P2;PMS_P1;PMS_P2;Temp;Humidity;BMP_temperature;BMP_pressure;BME280_temperature;BME280_humidity;BME280_pressure;Samples;Min_cycle;Max_cycle;Signal;HPM_P1;HPM_P2
2021/08/07 00:01:06;;;;;;;8.55;3.58;;;;;;;;;;5063333;28;20043;-95
2021/08/07 00:03:33;;;;;;;10.82;3.50;;;;;;;;;;5070645;27;20047;-95
2021/08/07 00:05:59;;;;;;;11.25;3.33;;;;;;;;;;5073231;28;20087;-95
2021/08/07 00:08:26;;;;;;;8.85;3.50;;;;;;;;;;5070340;28;20057;-94
2021/08/07 00:10:52;;;;;;;9.88;3.40;;;;;;;;;;5055436;28;20541;-93
2021/08/07 00:13:18;;;;;;;10.35;3.35;;;;;;;;;;5067737;28;20127;-94
2021/08/07 00:15:45;;;;;;;11.98;3.70;;;;;;;;;;5068537;28;20499;-93
2021/08/07 00:18:14;;;;;;;11.98;3.78;;;;;;;;;;5068033;28;20055;-95
2021/08/07 00:20:40;;;;;;;11.82;3.65;;;;;;;;;;5083896;28;20055;-94
2021/08/07 00:23:07;;;;;;;12.55;3.95;;;;;;;;;;5104493;28;20094;-95
2021/08/07 00:25:33;;;;;;;8.80;3.80;;;;;;;;;;5101452;27;20051;-94
2021/08/07 00:27:59;;;;;;;9.07;3.50;;;;;;;;;;5069229;27;20432;-94
2021/08/07 00:30:26;;;;;;;8.80;3.80;;;;;;;;;;5092495;28;20048;-95
2021/08/07 00:32:52;;;;;;;9.77;3.65;;;;;;;;;;5087671;28;20072;-93
2021/08/07 00:35:20;;;;;;;8.48;3.47;;;;;;;;;;5092686;27;20075;-95
2021/08/07 00:37:46;;;;;;;13.32;3.92;;;;;;;;;;5095457;27;20094;-93
2021/08/07 00:40:13;;;;;;;11.90;4.20;;;;;;;;;;5067183;28;20137;-93
2021/08/07 00:42:39;;;;;;;11.25;3.72;;;;;;;;;;5090640;27;20048;-94
2021/08/07 00:45:07;;;;;;;11.02;4.10;;;;;;;;;;5049804;28;20095;-95
2021/08/07 00:47:34;;;;;;;8.38;3.67;;;;;;;;;;5038129;28;20130;-96
2021/08/07 00:50:00;;;;;;;11.48;3.90;;;;;;;;;;5092055;27;20059;-93
2021/08/07 00:52:27;;;;;;;14.73;4.10;;;;;;;;;;5081405;28;20451;-93
2021/08/07 00:54:53;;;;;;;13.63;4.05;;;;;;;;;;5093460;27;20043;-94
2021/08/07 00:57:19;;;;;;;8.30;3.80;;;;;;;;;;5061737;28;20670;-93
2021/08/07 00:59:46;;;;;;;9.77;3.90;;;;;;;;;;5071958;28;20159;-92
2021/08/07 01:02:18;;;;;;;11.10;4.07;;;;;;;;;;5079408;28;20052;-92
2021/08/07 01:05:07;;;;;;;8.93;3.80;;;;;;;;;;5074175;28;20409;-94
2021/08/07 01:07:36;;;;;;;9.57;4.10;;;;;;;;;;5055391;28;20529;-94
2021/08/07 01:10:06;;;;;;;10.68;4.15;;;;;;;;;;5104439;27;20482;-95
2021/08/07 01:12:50;;;;;;;9.85;4.07;;;;;;;;;;5038920;28;20048;-93
2021/08/07 01:15:25;;;;;;;10.03;4.17;;;;;;;;;;5058121;28;20044;-93
2021/08/07 01:17:55;;;;;;;10.07;4.05;;;;;;;;;;5059751;28;20051;-93
2021/08/07 01:20:27;;;;;;;13.20;4.47;;;;;;;;;;5049537;28;20647;-93
2021/08/07 01:22:54;;;;;;;8.85;3.78;;;;;;;;;;5074989;28;20054;-94
2021/08/07 01:25:20;;;;;;;8.68;4.28;;;;;;;;;;5091621;28;20143;-95
2021/08/07 01:27:47;;;;;;;8.20;3.88;;;;;;;;;;5038105;28;20076;-93
2021/08/07 01:30:17;;;;;;;13.55;4.28;;;;;;;;;;5092091;28;20059;-93
2021/08/07 01:32:46;;;;;;;10.02;3.97;;;;;;;;;;5084500;27;20451;-94
2021/08/07 01:35:13;;;;;;;7.93;3.85;;;;;;;;;;5085210;28;20207;-94
2021/08/07 01:37:42;;;;;;;7.40;3.50;;;;;;;;;;5085793;28;20068;-94
2021/08/07 01:40:09;;;;;;;11.07;4.00;;;;;;;;;;5057024;28;20047;-93
2021/08/07 01:42:35;;;;;;;13.80;4.05;;;;;;;;;;5047362;28;20055;-93
2021/08/07 01:45:01;;;;;;;10.73;4.10;;;;;;;;;;5046864;28;20055;-93
2021/08/07 01:47:28;;;;;;;9.77;3.95;;;;;;;;;;5004617;28;20125;-94
2021/08/07 01:50:03;;;;;;;9.05;4.07;;;;;;;;;;5087611;27;20050;-94
2021/08/07 01:52:32;;;;;;;10.50;4.18;;;;;;;;;;5087558;28;20048;-94
2021/08/07 01:55:01;;;;;;;7.45;3.90;;;;;;;;;;5085941;28;20077;-93
2021/08/07 01:57:30;;;;;;;10.45;4.07;;;;;;;;;;5092245;28;20109;-94
2021/08/07 01:59:56;;;;;;;9.18;4.03;;;;;;;;;;5069512;28;20050;-94
2021/08/07 02:02:24;;;;;;;9.07;4.03;;;;;;;;;;5050989;28;20131;-95
2021/08/07 02:04:53;;;;;;;6.55;3.78;;;;;;;;;;5097936;27;20044;-95
2021/08/07 02:07:19;;;;;;;6.45;3.60;;;;;;;;;;5049198;28;20060;-95
2021/08/07 02:09:46;;;;;;;9.38;4.35;;;;;;;;;;5072090;28;20040;-95
2021/08/07 02:12:14;;;;;;;8.98;3.75;;;;;;;;;;5089985;28;20381;-95
2021/08/07 02:14:41;;;;;;;6.55;3.40;;;;;;;;;;5069820;28;20063;-94
2021/08/07 02:17:07;;;;;;;7.97;3.47;;;;;;;;;;5069900;28;20125;-95
2021/08/07 02:19:37;;;;;;;8.43;3.63;;;;;;;;;;5068139;27;20059;-90
2021/08/07 02:22:03;;;;;;;10.60;3.83;;;;;;;;;;5054864;28;20051;-95
2021/08/07 02:24:30;;;;;;;7.60;3.50;;;;;;;;;;5068924;28;20129;-95
2021/08/07 02:26:57;;;;;;;6.35;3.42;;;;;;;;;;5056499;28;20128;-95
2021/08/07 02:29:24;;;;;;;8.70;4.20;;;;;;;;;;5075823;28;20047;-95
2021/08/07 02:31:50;;;;;;;6.85;3.60;;;;;;;;;;5056407;28;20041;-94
2021/08/07 02:34:18;;;;;;;7.57;3.78;;;;;;;;;;5091527;28;20055;-96
2021/08/07 02:36:44;;;;;;;8.30;3.60;;;;;;;;;;5062764;28;20048;-96
2021/08/07 02:39:11;;;;;;;8.65;3.63;;;;;;;;;;5091485;28;20052;-95
2021/08/07 02:41:38;;;;;;;7.50;3.20;;;;;;;;;;5091300;27;20054;-95
2021/08/07 02:44:06;;;;;;;6.95;3.58;;;;;;;;;;5089807;27;20078;-94
2021/08/07 02:46:32;;;;;;;7.40;3.67;;;;;;;;;;5064311;27;20398;-94
2021/08/07 02:48:59;;;;;;;6.93;3.30;;;;;;;;;;5047583;28;20055;-95
2021/08/07 02:51:26;;;;;;;7.22;3.40;;;;;;;;;;5067414;27;20053;-93
2021/08/07 02:53:52;;;;;;;7.43;3.45;;;;;;;;;;5066748;28;20483;-95
2021/08/07 02:56:21;;;;;;;6.95;3.63;;;;;;;;;;5043930;27;20050;-95
2021/08/07 02:58:48;;;;;;;5.20;3.17;;;;;;;;;;5060371;28;20171;-94
2021/08/07 03:01:14;;;;;;;7.25;3.25;;;;;;;;;;5077629;27;20138;-94
2021/08/07 03:03:41;;;;;;;7.20;3.58;;;;;;;;;;5087114;28;20063;-95
2021/08/07 03:06:08;;;;;;;8.45;3.53;;;;;;;;;;5060515;27;20135;-95
2021/08/07 03:08:34;;;;;;;6.40;3.50;;;;;;;;;;5087468;28;20235;-94
2021/08/07 03:11:01;;;;;;;8.25;3.50;;;;;;;;;;5088262;27;20051;-94
2021/08/07 03:13:28;;;;;;;6.43;3.53;;;;;;;;;;5072411;28;20046;-94
2021/08/07 03:15:56;;;;;;;7.75;3.53;;;;;;;;;;5047663;28;20083;-94
2021/08/07 03:18:23;;;;;;;9.43;3.83;;;;;;;;;;5073946;28;20658;-95
2021/08/07 03:20:56;;;;;;;6.45;3.30;;;;;;;;;;5045120;28;20519;-94
2021/08/07 03:23:23;;;;;;;6.88;3.45;;;;;;;;;;5056385;28;20054;-95
2021/08/07 03:25:49;;;;;;;5.47;3.30;;;;;;;;;;5071460;28;20052;-93
2021/08/07 03:28:16;;;;;;;9.70;3.70;;;;;;;;;;5100061;28;20048;-95
2021/08/07 03:30:42;;;;;;;6.55;3.75;;;;;;;;;;5089775;28;20055;-95
2021/08/07 03:33:08;;;;;;;6.20;3.58;;;;;;;;;;5074518;28;20163;-96
2021/08/07 03:35:34;;;;;;;7.18;3.80;;;;;;;;;;5077198;28;20059;-95
2021/08/07 03:38:01;;;;;;;8.20;3.70;;;;;;;;;;5062531;28;20071;-94
2021/08/07 03:40:27;;;;;;;7.47;3.67;;;;;;;;;;5080321;28;20056;-95
2021/08/07 03:42:53;;;;;;;7.60;3.80;;;;;;;;;;5076607;28;20134;-94
2021/08/07 03:45:21;;;;;;;6.65;3.95;;;;;;;;;;5079089;28;20074;-95
2021/08/07 03:47:51;;;;;;;8.50;4.38;;;;;;;;;;5096266;28;20089;-94
2021/08/07 03:50:18;;;;;;;7.50;4.22;;;;;;;;;;5077769;28;20048;-95
2021/08/07 03:52:45;;;;;;;8.40;4.22;;;;;;;;;;5087700;28;20048;-94
2021/08/07 03:55:12;;;;;;;6.90;3.67;;;;;;;;;;5100241;28;20074;-94
2021/08/07 03:57:54;;;;;;;8.73;4.05;;;;;;;;;;5101363;28;20052;-94
2021/08/07 04:00:22;;;;;;;8.30;3.90;;;;;;;;;;5062059;28;20039;-95
2021/08/07 04:02:50;;;;;;;7.50;3.70;;;;;;;;;;5094424;28;20048;-94
2021/08/07 04:05:17;;;;;;;8.23;4.28;;;;;;;;;;5066518;28;20069;-93
2021/08/07 04:07:43;;;;;;;7.88;4.32;;;;;;;;;;5041169;28;20051;-92
2021/08/07 04:10:10;;;;;;;9.10;4.22;;;;;;;;;;5075899;28;20060;-95
2021/08/07 04:12:36;;;;;;;8.05;4.25;;;;;;;;;;5095213;28;20085;-96
2021/08/07 04:15:02;;;;;;;9.15;5.15;;;;;;;;;;5084091;28;20055;-91
2021/08/07 04:17:29;;;;;;;8.00;3.85;;;;;;;;;;5060089;28;20130;-95
2021/08/07 04:19:55;;;;;;;9.73;4.28;;;;;;;;;;5042031;28;20056;-96
2021/08/07 04:22:22;;;;;;;10.18;5.15;;;;;;;;;;5057600;28;20036;-95
2021/08/07 04:24:48;;;;;;;8.30;4.30;;;;;;;;;;5075155;28;20040;-93
2021/08/07 04:27:14;;;;;;;6.97;3.97;;;;;;;;;;5073534;28;20130;-95
2021/08/07 04:29:40;;;;;;;8.20;3.95;;;;;;;;;;5051060;28;20055;-94
2021/08/07 04:32:07;;;;;;;9.60;4.28;;;;;;;;;;5061545;28;20408;-93
2021/08/07 04:34:33;;;;;;;12.00;4.40;;;;;;;;;;5074828;28;20056;-94
2021/08/07 04:36:59;;;;;;;10.68;4.30;;;;;;;;;;5096192;28;20056;-93
2021/08/07 04:39:25;;;;;;;12.23;4.22;;;;;;;;;;5096370;27;20047;-94
2021/08/07 04:41:53;;;;;;;10.98;4.00;;;;;;;;;;5081527;28;20048;-92
2021/08/07 04:44:19;;;;;;;14.88;4.70;;;;;;;;;;5095189;28;20130;-94
2021/08/07 04:46:46;;;;;;;9.13;3.95;;;;;;;;;;5093465;27;20058;-93
2021/08/07 04:49:12;;;;;;;9.95;3.90;;;;;;;;;;5102259;27;20067;-95
2021/08/07 04:51:38;;;;;;;8.15;3.60;;;;;;;;;;5084008;28;20514;-94
2021/08/07 04:54:04;;;;;;;12.55;4.78;;;;;;;;;;5083127;28;20495;-93
2021/08/07 04:56:31;;;;;;;10.48;4.38;;;;;;;;;;5061527;28;20048;-93
2021/08/07 04:58:57;;;;;;;13.07;4.25;;;;;;;;;;5079091;28;20061;-94
2021/08/07 05:01:24;;;;;;;11.30;4.28;;;;;;;;;;5063729;27;20044;-95
2021/08/07 05:03:50;;;;;;;9.48;4.18;;;;;;;;;;5067313;28;20451;-93
2021/08/07 05:06:17;;;;;;;10.55;4.05;;;;;;;;;;5072299;27;20048;-94
2021/08/07 05:08:43;;;;;;;11.98;4.55;;;;;;;;;;5067403;28;20056;-94
2021/08/07 05:11:09;;;;;;;9.85;4.10;;;;;;;;;;5089041;28;20044;-93
2021/08/07 05:13:36;;;;;;;9.63;3.97;;;;;;;;;;5113198;27;20036;-92
2021/08/07 05:16:02;;;;;;;11.80;4.20;;;;;;;;;;5040882;28;20068;-94
2021/08/07 05:18:29;;;;;;;6.82;3.63;;;;;;;;;;5052000;27;20059;-93
2021/08/07 05:20:55;;;;;;;9.10;3.78;;;;;;;;;;5089998;27;20055;-93
2021/08/07 05:23:21;;;;;;;10.50;3.83;;;;;;;;;;5086293;28;20135;-94
2021/08/07 05:25:49;;;;;;;10.35;3.85;;;;;;;;;;5084293;27;20105;-95
2021/08/07 05:28:15;;;;;;;10.43;3.50;;;;;;;;;;5031383;28;20134;-95
2021/08/07 05:30:42;;;;;;;10.55;3.80;;;;;;;;;;5044074;28;20112;-93
2021/08/07 05:33:08;;;;;;;11.27;3.53;;;;;;;;;;5066049;28;20053;-94
2021/08/07 05:35:34;;;;;;;11.38;3.30;;;;;;;;;;5097240;28;20056;-94
2021/08/07 05:38:01;;;;;;;10.07;3.60;;;;;;;;;;5099393;27;20077;-94
2021/08/07 05:40:27;;;;;;;11.60;3.35;;;;;;;;;;5097666;27;20486;-94
2021/08/07 05:42:53;;;;;;;9.65;3.67;;;;;;;;;;5040050;28;20049;-95
2021/08/07 05:45:19;;;;;;;10.25;3.70;;;;;;;;;;5086626;28;20044;-93
2021/08/07 05:47:46;;;;;;;11.95;3.80;;;;;;;;;;5074598;27;20055;-94
2021/08/07 05:50:12;;;;;;;10.88;3.55;;;;;;;;;;5089428;28;20039;-94
2021/08/07 05:52:39;;;;;;;8.40;3.80;;;;;;;;;;5098808;27;20087;-94
2021/08/07 05:55:05;;;;;;;8.13;3.10;;;;;;;;;;5061503;28;20052;-92
2021/08/07 05:57:32;;;;;;;10.07;3.60;;;;;;;;;;5044483;28;20052;-94
2021/08/07 05:59:58;;;;;;;11.32;3.97;;;;;;;;;;5086522;28;20195;-96
2021/08/07 06:02:24;;;;;;;7.80;3.80;;;;;;;;;;5085286;28;20105;-95
2021/08/07 06:04:51;;;;;;;10.93;4.03;;;;;;;;;;5088183;28;20117;-95
2021/08/07 06:07:18;;;;;;;9.65;3.83;;;;;;;;;;5087034;27;20440;-94
2021/08/07 06:09:44;;;;;;;7.88;3.70;;;;;;;;;;5071125;28;20126;-94
2021/08/07 06:12:10;;;;;;;13.73;4.40;;;;;;;;;;5035595;28;20052;-91
2021/08/07 06:14:36;;;;;;;8.98;4.07;;;;;;;;;;5071582;28;20458;-93
2021/08/07 06:17:05;;;;;;;10.68;3.90;;;;;;;;;;5088261;28;20052;-94
2021/08/07 06:19:34;;;;;;;9.43;3.97;;;;;;;;;;5066008;28;20056;-95
2021/08/07 06:22:00;;;;;;;8.90;4.30;;;;;;;;;;5058675;28;20059;-92
2021/08/07 06:24:26;;;;;;;8.52;3.78;;;;;;;;;;5027523;28;20098;-94
2021/08/07 06:26:55;;;;;;;9.23;3.80;;;;;;;;;;5077319;28;20051;-94
2021/08/07 06:29:24;;;;;;;10.63;4.68;;;;;;;;;;5055966;28;20135;-94
2021/08/07 06:31:50;;;;;;;8.85;4.47;;;;;;;;;;5078774;28;20054;-94
2021/08/07 06:34:16;;;;;;;9.95;4.30;;;;;;;;;;5060373;27;20055;-92
2021/08/07 06:36:42;;;;;;;9.20;4.30;;;;;;;;;;5078195;28;20571;-96
2021/08/07 06:39:09;;;;;;;10.32;4.32;;;;;;;;;;5097657;27;20051;-95
2021/08/07 06:41:35;;;;;;;9.85;4.25;;;;;;;;;;5065447;28;20109;-95
2021/08/07 06:44:01;;;;;;;8.82;4.22;;;;;;;;;;5081791;28;20060;-96
2021/08/07 06:46:30;;;;;;;8.05;4.07;;;;;;;;;;5060769;27;20041;-94
2021/08/07 06:48:56;;;;;;;8.50;4.28;;;;;;;;;;4998320;28;20064;-95
2021/08/07 06:51:23;;;;;;;9.77;4.20;;;;;;;;;;4983288;28;20037;-93
2021/08/07 06:53:51;;;;;;;8.25;3.95;;;;;;;;;;5044557;28;20078;-93
2021/08/07 06:56:19;;;;;;;10.93;4.05;;;;;;;;;;5034062;28;20057;-95
2021/08/07 06:58:47;;;;;;;14.82;4.82;;;;;;;;;;5048499;28;20032;-94
2021/08/07 07:01:16;;;;;;;6.38;3.83;;;;;;;;;;5046065;28;20059;-92
2021/08/07 07:03:42;;;;;;;8.77;4.47;;;;;;;;;;5100519;28;20108;-89
2021/08/07 07:06:11;;;;;;;8.35;4.07;;;;;;;;;;5122778;28;20089;-89
2021/08/07 07:08:38;;;;;;;8.30;4.25;;;;;;;;;;5096370;28;20052;-88
2021/08/07 07:11:04;;;;;;;9.18;4.25;;;;;;;;;;5142617;22;21422;-93
2021/08/07 07:13:32;;;;;;;11.43;4.35;;;;;;;;;;5037197;28;20030;-92
2021/08/07 07:15:59;;;;;;;7.85;4.45;;;;;;;;;;5031549;28;20037;-93
2021/08/07 07:18:25;;;;;;;10.02;4.55;;;;;;;;;;5029940;28;20109;-90
2021/08/07 07:20:52;;;;;;;12.00;4.63;;;;;;;;;;5031852;28;20660;-94
2021/08/07 07:23:18;;;;;;;7.55;3.92;;;;;;;;;;5029944;28;20056;-95
2021/08/07 07:25:44;;;;;;;8.75;3.75;;;;;;;;;;5016140;28;20049;-94
2021/08/07 07:28:10;;;;;;;8.32;4.55;;;;;;;;;;5010054;28;20065;-88
2021/08/07 07:30:38;;;;;;;11.38;4.13;;;;;;;;;;4999058;28;20056;-96
2021/08/07 07:33:05;;;;;;;7.55;3.67;;;;;;;;;;5004184;28;20042;-96
2021/08/07 07:35:31;;;;;;;7.15;3.97;;;;;;;;;;5009893;28;20064;-93
2021/08/07 07:37:58;;;;;;;8.55;3.25;;;;;;;;;;4998002;28;20212;-93
2021/08/07 07:40:24;;;;;;;7.57;3.53;;;;;;;;;;5032083;28;20053;-90
2021/08/07 07:42:50;;;;;;;9.95;3.70;;;;;;;;;;4997511;28;20061;-92
2021/08/07 07:45:16;;;;;;;8.68;3.78;;;;;;;;;;5009173;28;20211;-90
2021/08/07 07:47:42;;;;;;;6.78;3.10;;;;;;;;;;5025806;28;20057;-93
2021/08/07 07:50:09;;;;;;;11.60;3.55;;;;;;;;;;5022014;28;20046;-88
2021/08/07 07:52:35;;;;;;;8.57;3.97;;;;;;;;;;5022056;28;20058;-96
2021/08/07 07:55:01;;;;;;;7.53;3.65;;;;;;;;;;4997980;28;20109;-94
2021/08/07 07:57:27;;;;;;;8.30;3.38;;;;;;;;;;5021077;28;20077;-92
2021/08/07 07:59:53;;;;;;;10.13;3.88;;;;;;;;;;5017704;28;20058;-92
2021/08/07 08:02:20;;;;;;;7.88;3.50;;;;;;;;;;5036004;28;20033;-90
2021/08/07 08:04:46;;;;;;;8.05;3.35;;;;;;;;;;5029137;28;20066;-91
2021/08/07 08:07:12;;;;;;;7.60;3.03;;;;;;;;;;5020762;28;20054;-91
2021/08/07 08:09:39;;;;;;;8.93;3.40;;;;;;;;;;5027278;28;20125;-89
2021/08/07 08:12:05;;;;;;;8.77;3.65;;;;;;;;;;5035468;28;20064;-94
2021/08/07 08:14:32;;;;;;;7.13;3.92;;;;;;;;;;5038027;28;20061;-93
2021/08/07 08:16:58;;;;;;;7.50;3.20;;;;;;;;;;5032345;28;20109;-95
2021/08/07 08:19:24;;;;;;;10.15;3.50;;;;;;;;;;5033211;28;20072;-92
2021/08/07 08:21:50;;;;;;;8.85;3.10;;;;;;;;;;5017173;28;20033;-93
2021/08/07 08:24:16;;;;;;;7.20;3.25;;;;;;;;;;5042600;28;20061;-90
2021/08/07 08:26:42;;;;;;;10.90;3.40;;;;;;;;;;5030426;28;20053;-93
2021/08/07 08:29:09;;;;;;;7.00;3.20;;;;;;;;;;5028437;28;20060;-88
2021/08/07 08:31:35;;;;;;;7.32;3.10;;;;;;;;;;5049652;28;20030;-92
2021/08/07 08:34:01;;;;;;;7.47;2.90;;;;;;;;;;5035863;28;20030;-91
2021/08/07 08:36:27;;;;;;;7.18;3.20;;;;;;;;;;5031673;28;20116;-91
2021/08/07 08:38:54;;;;;;;8.95;3.00;;;;;;;;;;5032291;28;20053;-90
2021/08/07 08:41:21;;;;;;;6.50;3.05;;;;;;;;;;5026698;28;20046;-93
2021/08/07 08:43:47;;;;;;;7.03;2.72;;;;;;;;;;4997386;28;20069;-92
2021/08/07 08:46:14;;;;;;;6.40;3.00;;;;;;;;;;5016984;28;20536;-93
2021/08/07 08:48:40;;;;;;;7.10;2.78;;;;;;;;;;5005797;28;20058;-93
2021/08/07 08:51:08;;;;;;;8.98;3.05;;;;;;;;;;5018857;28;20069;-94
2021/08/07 08:53:41;;;;;;;5.28;2.60;;;;;;;;;;5012517;28;20057;-93
2021/08/07 08:56:11;;;;;;;6.75;2.65;;;;;;;;;;5018550;28;20107;-89
2021/08/07 08:58:37;;;;;;;8.48;2.78;;;;;;;;;;5019664;28;20080;-94
2021/08/07 09:01:04;;;;;;;6.55;2.88;;;;;;;;;;5013730;28;20405;-91
2021/08/07 09:03:31;;;;;;;8.82;4.13;;;;;;;;;;5037208;28;20049;-92
2021/08/07 09:05:57;;;;;;;6.57;2.38;;;;;;;;;;5040855;28;20075;-92
2021/08/07 09:08:23;;;;;;;6.30;2.60;;;;;;;;;;5017169;28;20041;-92
2021/08/07 09:11:10;;;;;;;6.80;2.20;;;;;;;;;;5012645;28;20065;-94
2021/08/07 09:13:36;;;;;;;6.85;2.55;;;;;;;;;;5011631;28;20053;-95
2021/08/07 09:16:07;;;;;;;5.38;2.10;;;;;;;;;;5006590;28;20053;-94
2021/08/07 09:18:33;;;;;;;7.00;2.42;;;;;;;;;;5015936;28;20191;-95
2021/08/07 09:21:09;;;;;;;5.53;2.20;;;;;;;;;;5017320;28;20082;-92
2021/08/07 09:23:35;;;;;;;6.40;2.20;;;;;;;;;;4998710;28;20042;-93
2021/08/07 09:26:19;;;;;;;4.60;1.95;;;;;;;;;;5016566;28;20046;-95
2021/08/07 09:28:46;;;;;;;6.53;2.20;;;;;;;;;;5005601;28;20046;-96
2021/08/07 09:31:12;;;;;;;7.05;2.40;;;;;;;;;;5013628;28;20050;-92
2021/08/07 09:33:39;;;;;;;7.15;2.50;;;;;;;;;;5012140;28;20046;-94
2021/08/07 09:36:06;;;;;;;5.82;2.00;;;;;;;;;;5013692;28;20053;-94
2021/08/07 09:38:32;;;;;;;7.13;2.33;;;;;;;;;;5012900;28;20045;-94
2021/08/07 09:40:59;;;;;;;5.90;2.45;;;;;;;;;;5014920;28;20065;-95
2021/08/07 09:43:28;;;;;;;7.43;2.28;;;;;;;;;;5028573;28;20061;-96
2021/08/07 09:46:02;;;;;;;4.40;1.95;;;;;;;;;;5030317;28;20065;-94
2021/08/07 09:48:35;;;;;;;4.43;1.95;;;;;;;;;;5030559;28;20083;-92
2021/08/07 09:51:13;;;;;;;4.03;2.00;;;;;;;;;;5019227;28;20049;-93
2021/08/07 09:53:39;;;;;;;6.20;2.20;;;;;;;;;;5022925;28;20050;-96
2021/08/07 09:56:07;;;;;;;6.15;1.80;;;;;;;;;;5017232;28;20046;-95
2021/08/07 09:58:33;;;;;;;5.32;1.85;;;;;;;;;;4992685;28;20053;-95
2021/08/07 10:01:00;;;;;;;5.53;1.80;;;;;;;;;;5003225;28;20053;-96
2021/08/07 10:03:28;;;;;;;5.30;1.77;;;;;;;;;;5007461;28;20458;-89
2021/08/07 10:05:55;;;;;;;6.28;2.25;;;;;;;;;;5017848;28;20409;-95
2021/08/07 10:08:21;;;;;;;3.38;1.50;;;;;;;;;;5018180;28;20054;-90
2021/08/07 10:10:50;;;;;;;4.72;1.90;;;;;;;;;;4997889;28;20042;-88
2021/08/07 10:13:17;;;;;;;3.92;1.50;;;;;;;;;;5002235;28;20058;-96
2021/08/07 10:15:44;;;;;;;2.83;1.58;;;;;;;;;;5024800;28;20049;-96
2021/08/07 10:18:11;;;;;;;5.22;1.80;;;;;;;;;;5034321;22;20058;-91
2021/08/07 10:20:38;;;;;;;5.50;1.40;;;;;;;;;;5022492;28;20038;-93
2021/08/07 10:23:07;;;;;;;3.75;1.60;;;;;;;;;;4991102;28;20050;-96
2021/08/07 10:25:34;;;;;;;5.82;2.03;;;;;;;;;;4998051;28;20050;-93
2021/08/07 10:28:01;;;;;;;3.72;1.85;;;;;;;;;;5017241;28;20054;-89
2021/08/07 10:30:29;;;;;;;4.40;1.50;;;;;;;;;;5014766;28;20140;-87
2021/08/07 10:32:57;;;;;;;4.05;1.60;;;;;;;;;;4981130;28;20054;-89
2021/08/07 10:35:27;;;;;;;4.55;1.33;;;;;;;;;;4998905;28;20054;-94
2021/08/07 10:37:57;;;;;;;3.97;1.23;;;;;;;;;;5016036;28;20050;-95
2021/08/07 10:40:24;;;;;;;3.03;1.20;;;;;;;;;;5020921;28;20482;-94
2021/08/07 10:42:51;;;;;;;3.63;1.25;;;;;;;;;;5001864;28;20109;-91
2021/08/07 10:45:21;;;;;;;3.53;1.10;;;;;;;;;;4999096;28;20081;-92
2021/08/07 10:47:49;;;;;;;4.18;1.15;;;;;;;;;;4973909;28;20120;-92
2021/08/07 10:50:25;;;;;;;4.55;1.58;;;;;;;;;;5002758;28;20486;-90
2021/08/07 10:52:55;;;;;;;3.28;1.38;;;;;;;;;;4983903;28;20046;-88
2021/08/07 10:55:39;;;;;;;4.63;1.40;;;;;;;;;;5013023;28;20046;-90
2021/08/07 10:58:25;;;;;;;4.15;1.50;;;;;;;;;;4987076;28;20054;-92
2021/08/07 11:00:52;;;;;;;3.83;1.40;;;;;;;;;;4975309;28;20133;-91
2021/08/07 11:03:18;;;;;;;3.97;1.52;;;;;;;;;;4982062;28;20111;-93
2021/08/07 11:06:02;;;;;;;4.15;1.38;;;;;;;;;;4997889;28;20145;-91
2021/08/07 11:08:28;;;;;;;4.13;1.73;;;;;;;;;;5010970;28;20098;-90
2021/08/07 11:10:54;;;;;;;6.25;1.40;;;;;;;;;;4987438;28;20507;-89
2021/08/07 11:13:23;;;;;;;4.50;1.40;;;;;;;;;;4974985;28;20050;-93
2021/08/07 11:16:09;;;;;;;3.63;1.55;;;;;;;;;;5007205;28;20043;-96
2021/08/07 11:18:36;;;;;;;4.05;1.40;;;;;;;;;;4975391;28;20074;-94
2021/08/07 11:21:03;;;;;;;5.03;1.40;;;;;;;;;;4987434;28;20065;-94
2021/08/07 11:23:36;;;;;;;3.60;1.25;;;;;;;;;;4981876;28;20051;-92
2021/08/07 11:26:04;;;;;;;4.40;1.38;;;;;;;;;;4990808;28;20078;-92
2021/08/07 11:28:30;;;;;;;4.30;1.50;;;;;;;;;;4992349;28;20042;-91
2021/08/07 11:31:16;;;;;;;3.97;1.52;;;;;;;;;;4991471;28;20055;-94
2021/08/07 11:33:42;;;;;;;3.30;1.50;;;;;;;;;;5022531;28;20058;-91
2021/08/07 11:36:09;;;;;;;4.07;1.50;;;;;;;;;;4992369;28;20062;-88
2021/08/07 11:38:55;;;;;;;3.50;1.33;;;;;;;;;;4978089;28;20073;-93
2021/08/07 11:41:32;;;;;;;3.35;1.30;;;;;;;;;;4967038;28;20053;-93
2021/08/07 11:43:58;;;;;;;3.38;1.38;;;;;;;;;;4992402;28;20058;-93
2021/08/07 11:46:31;;;;;;;4.80;1.40;;;;;;;;;;4979758;28;20058;-94
2021/08/07 11:48:58;;;;;;;3.78;1.30;;;;;;;;;;5013676;28;20065;-90
2021/08/07 11:51:26;;;;;;;3.63;1.58;;;;;;;;;;5025752;28;20049;-92
2021/08/07 11:53:52;;;;;;;3.13;1.15;;;;;;;;;;5021441;28;20046;-90
2021/08/07 11:56:20;;;;;;;3.13;1.50;;;;;;;;;;4983090;28;20141;-90
2021/08/07 11:58:53;;;;;;;3.90;1.08;;;;;;;;;;4979006;28;20276;-92
2021/08/07 12:01:21;;;;;;;4.37;1.40;;;;;;;;;;4995248;28;20050;-87
2021/08/07 12:03:52;;;;;;;3.33;1.20;;;;;;;;;;4983844;28;20392;-92
2021/08/07 12:06:19;;;;;;;2.38;1.20;;;;;;;;;;4983671;28;20244;-92
2021/08/07 12:08:45;;;;;;;2.25;1.00;;;;;;;;;;4985050;28;20058;-88
2021/08/07 12:11:12;;;;;;;4.00;1.13;;;;;;;;;;5011672;28;20054;-92
2021/08/07 12:13:42;;;;;;;3.03;1.55;;;;;;;;;;5015559;28;20050;-89
2021/08/07 12:16:10;;;;;;;3.50;1.35;;;;;;;;;;4987372;28;20046;-87
2021/08/07 12:18:40;;;;;;;3.20;1.48;;;;;;;;;;4987305;28;20054;-88
2021/08/07 12:21:06;;;;;;;2.67;1.20;;;;;;;;;;4997351;28;20073;-94
2021/08/07 12:23:44;;;;;;;2.83;1.10;;;;;;;;;;4989875;28;20211;-92
2021/08/07 12:26:11;;;;;;;4.30;1.35;;;;;;;;;;5025204;28;20057;-94
2021/08/07 12:28:37;;;;;;;2.38;1.25;;;;;;;;;;4994120;28;20086;-93
2021/08/07 12:31:03;;;;;;;2.35;1.30;;;;;;;;;;4988838;28;20058;-91
2021/08/07 12:33:38;;;;;;;6.30;1.20;;;;;;;;;;4983361;28;20148;-94
2021/08/07 12:36:04;;;;;;;;;;;;;;;;;;4988313;28;20121;-95
2021/08/07 12:38:30;;;;;;;3.33;1.33;;;;;;;;;;5022869;28;20035;-92
2021/08/07 12:40:58;;;;;;;2.15;1.10;;;;;;;;;;4993623;28;20526;-91
2021/08/07 12:43:31;;;;;;;4.20;1.27;;;;;;;;;;4990031;28;20043;-95
2021/08/07 12:45:58;;;;;;;5.80;1.35;;;;;;;;;;4987136;28;20116;-95
2021/08/07 12:48:25;;;;;;;4.68;1.40;;;;;;;;;;4992840;28;20136;-96
2021/08/07 12:51:01;;;;;;;3.92;1.30;;;;;;;;;;4987912;28;20104;-96
2021/08/07 12:53:43;;;;;;;2.80;1.20;;;;;;;;;;4987222;28;20122;-96
2021/08/07 12:56:10;;;;;;;4.18;1.48;;;;;;;;;;4984762;28;20473;-95
2021/08/07 12:58:36;;;;;;;2.30;1.20;;;;;;;;;;4987049;28;20054;-94
2021/08/07 13:01:12;;;;;;;4.15;1.63;;;;;;;;;;4985961;28;20046;-96
2021/08/07 13:03:51;;;;;;;3.55;1.42;;;;;;;;;;4988476;28;20058;-94
2021/08/07 13:06:17;;;;;;;3.35;1.20;;;;;;;;;;4987220;28;20061;-93
2021/08/07 13:08:44;;;;;;;3.92;1.50;;;;;;;;;;4984977;28;20129;-96
2021/08/07 13:11:11;;;;;;;5.22;1.60;;;;;;;;;;4992245;28;20080;-94
2021/08/07 13:13:41;;;;;;;2.58;1.42;;;;;;;;;;4990511;28;20110;-96
2021/08/07 13:16:08;;;;;;;3.25;1.40;;;;;;;;;;4988783;28;20058;-89
2021/08/07 13:18:34;;;;;;;2.97;1.30;;;;;;;;;;4985875;28;20055;-96
2021/08/07 13:21:01;;;;;;;2.95;1.27;;;;;;;;;;4992903;28;20058;-93
2021/08/07 13:23:34;;;;;;;3.83;1.40;;;;;;;;;;5000699;28;21021;-96
2021/08/07 13:26:06;;;;;;;2.97;1.48;;;;;;;;;;4995779;28;20058;-93
2021/08/07 13:28:32;;;;;;;3.47;1.40;;;;;;;;;;4984635;28;20644;-92
2021/08/07 13:30:58;;;;;;;6.07;1.60;;;;;;;;;;5022669;28;20073;-94
2021/08/07 13:33:26;;;;;;;2.53;1.40;;;;;;;;;;5024672;28;20070;-96
2021/08/07 13:35:52;;;;;;;2.75;1.15;;;;;;;;;;4989399;28;20057;-94
2021/08/07 13:38:18;;;;;;;3.88;1.48;;;;;;;;;;5016611;28;20068;-93
2021/08/07 13:40:44;;;;;;;3.50;1.33;;;;;;;;;;5009822;28;20616;-94
2021/08/07 13:43:11;;;;;;;3.80;1.70;;;;;;;;;;5018555;28;20073;-94
2021/08/07 13:45:38;;;;;;;1.52;0.93;;;;;;;;;;5012364;28;20062;-95
2021/08/07 13:48:04;;;;;;;1.17;0.90;;;;;;;;;;4980728;28;20069;-95
2021/08/07 13:50:30;;;;;;;2.08;1.00;;;;;;;;;;4982794;28;20057;-93
2021/08/07 13:52:56;;;;;;;1.95;0.80;;;;;;;;;;4990685;28;20073;-96
2021/08/07 13:55:23;;;;;;;1.42;0.73;;;;;;;;;;5021099;28;20043;-94
2021/08/07 13:57:49;;;;;;;1.50;0.80;;;;;;;;;;4997167;28;20127;-96
2021/08/07 14:00:15;;;;;;;0.73;0.70;;;;;;;;;;5029394;28;20046;-91
2021/08/07 14:02:42;;;;;;;1.48;0.90;;;;;;;;;;4999807;28;20038;-92
2021/08/07 14:05:08;;;;;;;1.02;0.80;;;;;;;;;;4983021;28;20056;-86
2021/08/07 14:07:34;;;;;;;2.42;1.00;;;;;;;;;;4969811;28;20108;-87
2021/08/07 14:10:01;;;;;;;2.20;1.00;;;;;;;;;;5010744;28;20058;-88
2021/08/07 14:12:27;;;;;;;2.90;1.13;;;;;;;;;;4957836;28;20057;-91
2021/08/07 14:14:53;;;;;;;4.20;1.00;;;;;;;;;;5007468;28;20498;-90
2021/08/07 14:17:20;;;;;;;2.58;1.00;;;;;;;;;;5013115;28;20458;-90
2021/08/07 14:19:46;;;;;;;1.75;1.00;;;;;;;;;;5012375;28;20096;-89
2021/08/07 14:22:13;;;;;;;1.67;1.00;;;;;;;;;;4978789;28;20046;-90
2021/08/07 14:24:39;;;;;;;1.98;1.10;;;;;;;;;;5008685;28;20093;-90
2021/08/07 14:27:05;;;;;;;2.13;1.00;;;;;;;;;;5002554;28;20138;-90
2021/08/07 14:29:32;;;;;;;1.50;0.90;;;;;;;;;;4987450;28;20082;-90
2021/08/07 14:31:58;;;;;;;3.15;1.00;;;;;;;;;;5019827;28;20449;-90
2021/08/07 14:34:24;;;;;;;2.92;1.05;;;;;;;;;;5020116;28;20065;-88
2021/08/07 14:36:50;;;;;;;0.85;0.75;;;;;;;;;;4988361;28;20395;-89
2021/08/07 14:39:18;;;;;;;2.70;0.85;;;;;;;;;;5020489;28;20054;-88
2021/08/07 14:41:45;;;;;;;2.33;1.00;;;;;;;;;;5021148;28;20073;-91
2021/08/07 14:44:13;;;;;;;2.42;1.00;;;;;;;;;;4989479;28;20054;-90